TJH weather

Tajima Airport
Tajima, Hyōgo Prefecture, Japan

Public forecast

Using degrees Celsius for public forecast. Weather courtesy of forecast.io.

Current aviation weather report (METAR) for Tajima Airport

Retrieved 2019/12/10 09:00 UTC (2 hours ago):

RJBT 100900Z 00000KT CAVOK 10/05 Q1020

Closest aviation forecast (TAF) to Tajima Airport

Closest forecast is Osaka International Airport, 54.1 nm (100.2 km) SE. Retrieved 2019/12/10 06:30 UTC (4 hours ago):

TAF RJOO 100506Z 1006/1112 22005KT 9999 FEW035 BECMG 1008/1010 32005KT BECMG 1100/1103 22004KT BECMG 1106/1109 32005KT